createdAt,value
2023-04-21T00:04:21.876Z,3.05
2023-04-21T00:09:22.344Z,3.22
2023-04-21T00:14:21.078Z,2.63
2023-04-21T00:19:20.307Z,3.25
2023-04-21T00:24:19.302Z,2.80
2023-04-21T00:29:19.602Z,2.80
2023-04-21T00:34:18.616Z,3.67
2023-04-21T00:39:17.712Z,3.05
2023-04-21T00:44:16.838Z,3.15
2023-04-21T00:49:17.392Z,3.35
2023-04-21T00:54:16.418Z,3.17
2023-04-21T00:59:15.280Z,3.30
2023-04-21T01:04:14.157Z,2.90
2023-04-21T01:09:14.618Z,3.03
2023-04-21T01:14:13.398Z,2.88
2023-04-21T01:19:12.791Z,2.78
2023-04-21T01:24:15.046Z,3.75
2023-04-21T01:29:16.327Z,2.92
2023-04-21T01:34:15.291Z,2.60
2023-04-21T01:39:17.282Z,3.58
2023-04-21T01:44:16.751Z,3.22
2023-04-21T01:49:15.473Z,5.38
2023-04-21T01:54:14.172Z,3.65
2023-04-21T01:59:14.452Z,3.60
2023-04-21T02:04:13.306Z,3.20
2023-04-21T02:09:12.170Z,4.00
2023-04-21T02:14:11.147Z,4.50
2023-04-21T02:19:13.526Z,4.55
2023-04-21T02:24:12.252Z,4.40
2023-04-21T02:29:11.009Z,4.65
2023-04-21T02:34:10.512Z,4.95
2023-04-21T02:39:12.108Z,4.55
2023-04-21T02:44:10.916Z,6.80
2023-04-21T02:49:10.694Z,5.15
2023-04-21T02:54:09.482Z,6.03
2023-04-21T02:59:11.601Z,5.00
2023-04-21T03:04:13.100Z,5.25
2023-04-21T03:09:12.305Z,6.03
2023-04-21T03:14:12.385Z,6.10
2023-04-21T03:19:12.990Z,6.70
2023-04-21T03:24:11.658Z,5.65
2023-04-21T03:29:12.717Z,6.30
2023-04-21T03:34:12.971Z,5.55
2023-04-21T03:39:19.752Z,6.20
2023-04-21T03:44:19.831Z,5.20
2023-04-21T03:49:20.167Z,5.53
2023-04-21T03:54:19.117Z,7.80
2023-04-21T03:59:18.387Z,7.05
2023-04-21T04:04:17.606Z,7.47
2023-04-21T04:09:18.077Z,10.00
2023-04-21T04:14:17.103Z,11.70
2023-04-21T04:19:16.277Z,11.77
2023-04-21T04:24:15.949Z,10.65
2023-04-21T04:29:16.477Z,8.50
2023-04-21T04:34:15.768Z,10.05
2023-04-21T04:39:14.696Z,17.67
2023-04-21T04:44:15.481Z,10.60
2023-04-21T04:49:15.684Z,7.95
2023-04-21T04:54:14.498Z,6.13
2023-04-21T04:59:13.820Z,5.32
2023-04-21T05:04:16.823Z,4.80
2023-04-21T05:09:17.467Z,5.18
2023-04-21T05:14:16.433Z,4.68
2023-04-21T05:19:17.380Z,4.88
2023-04-21T05:24:23.314Z,5.43
2023-04-21T05:29:22.092Z,5.22
2023-04-21T11:03:54.808Z,2.80
2023-04-21T11:08:57.506Z,2.60
2023-04-21T11:14:02.210Z,2.00
2023-04-21T11:19:02.720Z,2.47
2023-04-21T11:24:01.815Z,2.10
2023-04-21T11:29:05.417Z,2.30
2023-04-21T11:34:07.041Z,2.65
2023-04-21T11:44:15.213Z,2.67
2023-04-21T11:49:17.193Z,2.17
2023-04-21T11:54:17.079Z,2.13
2023-04-21T11:59:19.722Z,2.55
2023-04-21T12:04:21.581Z,1.88
2023-04-21T12:09:22.685Z,2.63
2023-04-21T12:14:23.207Z,1.77
2023-04-21T12:19:37.205Z,2.77
2023-04-21T12:24:36.896Z,3.03
2023-04-21T12:29:37.968Z,2.50
2023-04-21T12:34:43.544Z,3.63
2023-04-21T12:39:45.357Z,5.13
2023-04-21T12:44:44.526Z,2.42
2023-04-21T12:49:44.875Z,3.30
2023-04-21T12:54:44.881Z,2.28
2023-04-21T12:59:46.666Z,3.00
2023-04-21T13:09:47.962Z,3.47
2023-04-21T13:14:47.364Z,2.25
2023-04-21T13:19:48.031Z,2.90
2023-04-21T13:24:49.347Z,3.10
2023-04-21T13:29:51.120Z,2.60
2023-04-21T13:34:51.901Z,2.25
2023-04-21T13:39:51.204Z,2.67
2023-04-21T13:44:50.368Z,2.78
2023-04-21T13:50:02.059Z,2.47
2023-04-21T13:55:04.050Z,2.78
2023-04-21T14:00:12.134Z,2.90
2023-04-21T14:05:18.066Z,1.90
2023-04-21T14:10:20.475Z,2.95
2023-04-21T14:15:24.873Z,3.58
2023-04-21T14:20:42.772Z,2.15
2023-04-21T14:25:42.273Z,1.60
2023-04-21T14:30:43.335Z,2.22
2023-04-21T14:35:51.796Z,3.15
2023-04-21T14:40:55.229Z,2.95
2023-04-21T14:45:57.403Z,2.97
2023-04-21T14:51:02.193Z,2.45
2023-04-21T14:56:01.518Z,2.72
2023-04-21T15:01:01.067Z,3.78
2023-04-21T15:06:02.111Z,4.57
2023-04-21T15:11:03.549Z,3.40
2023-04-21T15:21:07.454Z,1.90
2023-04-21T15:26:07.047Z,2.25
2023-04-21T15:31:09.270Z,2.45
2023-04-21T15:36:14.920Z,1.77
2023-04-21T15:41:20.142Z,2.88
2023-04-21T15:46:23.609Z,2.88
2023-04-21T15:51:24.207Z,1.92
2023-04-21T15:56:24.109Z,1.77
2023-04-21T16:01:28.082Z,2.08
2023-04-21T16:06:36.102Z,2.42
2023-04-21T16:11:37.351Z,2.22
2023-04-21T16:21:42.238Z,3.10
2023-04-21T16:26:47.741Z,3.17
2023-04-21T16:31:48.210Z,2.28
2023-04-21T16:37:00.804Z,1.95
2023-04-21T16:41:59.886Z,2.40
2023-04-21T16:47:02.889Z,3.20
2023-04-21T16:52:12.758Z,3.10
2023-04-21T16:57:19.578Z,3.55
2023-04-21T17:02:23.535Z,3.85
2023-04-21T17:07:24.162Z,3.75
2023-04-21T17:12:23.652Z,4.05
2023-04-21T17:23:38.018Z,3.53
2023-04-21T17:28:40.252Z,3.03
2023-04-21T17:33:39.603Z,3.80
2023-04-21T17:38:45.830Z,4.00
2023-04-21T17:43:51.966Z,2.80
2023-04-21T17:48:55.280Z,3.72
2023-04-21T17:53:56.866Z,3.50
2023-04-21T18:05:18.601Z,4.28
2023-04-21T18:11:15.616Z,3.28
2023-04-21T18:16:47.647Z,4.05
2023-04-21T18:22:11.497Z,4.00
2023-04-21T18:27:35.158Z,5.10
2023-04-21T18:33:03.777Z,4.63
2023-04-21T18:38:49.363Z,5.38
2023-04-21T18:44:14.499Z,5.32
2023-04-21T18:56:03.095Z,4.85
2023-04-21T19:08:01.849Z,4.10
2023-04-21T19:13:04.695Z,7.03
2023-04-21T19:18:08.224Z,4.05
2023-04-21T19:23:10.482Z,4.25
2023-04-21T19:28:10.205Z,4.18
2023-04-21T19:33:13.372Z,3.67
2023-04-21T19:38:19.671Z,3.58
2023-04-21T19:43:22.416Z,4.07
2023-04-21T19:48:21.874Z,3.55
2023-04-21T19:54:11.573Z,4.70
2023-04-21T19:59:16.590Z,4.57
2023-04-21T20:04:20.983Z,4.07
2023-04-21T20:09:23.747Z,4.00
2023-04-21T20:14:29.579Z,4.80
2023-04-21T20:19:31.157Z,4.38
2023-04-21T20:24:34.461Z,5.13
2023-04-21T20:29:48.167Z,4.82
2023-04-21T20:34:47.578Z,4.72
2023-04-21T20:39:47.177Z,4.22
2023-04-21T20:44:48.571Z,4.47
2023-04-21T20:49:50.347Z,5.22
2023-04-21T20:54:49.683Z,4.93
2023-04-21T20:59:56.604Z,5.95
2023-04-21T21:04:55.979Z,4.97
2023-04-21T21:09:57.746Z,5.50
2023-04-21T21:15:11.316Z,5.13
2023-04-21T21:20:13.686Z,4.30
2023-04-21T21:25:19.856Z,5.03
2023-04-21T21:30:22.578Z,3.75
2023-04-21T21:40:21.110Z,5.03
2023-04-21T21:45:24.631Z,5.30
2023-04-21T21:50:25.355Z,5.13
2023-04-21T21:55:30.704Z,6.68
2023-04-21T22:00:31.394Z,6.47
2023-04-21T22:05:32.039Z,6.13
2023-04-21T22:10:31.058Z,5.50
2023-04-21T22:15:33.888Z,4.82
2023-04-21T22:20:39.265Z,4.95
2023-04-21T22:25:47.458Z,5.72
2023-04-21T22:30:53.428Z,5.25
2023-04-21T22:35:53.220Z,5.45
2023-04-21T22:40:54.106Z,5.63
2023-04-21T22:45:57.198Z,5.68
2023-04-21T22:50:57.878Z,5.22
2023-04-21T22:55:58.752Z,5.68
2023-04-21T23:01:00.987Z,5.57
2023-04-21T23:06:02.921Z,7.18
2023-04-21T23:11:02.149Z,6.63
2023-04-21T23:16:02.945Z,5.43
2023-04-21T23:21:02.303Z,7.07
2023-04-21T23:26:01.426Z,6.63
2023-04-21T23:31:01.892Z,10.70
2023-04-21T23:36:04.306Z,7.97
2023-04-21T23:41:03.745Z,6.47
2023-04-21T23:46:02.804Z,6.68
2023-04-21T23:51:03.642Z,5.22
2023-04-21T23:56:02.764Z,6.32
